Charles Darwin — GDLS — position and weather

sailwx.info

Track history (hours):
 
Tides and Currents Weather Stations Pressure Air Temp Water Temp Dewpoint Dewpoint Depression Visibility Wind Speed Wind Dir Waves Ship Positions

Oceanographic research ship Charles Darwin (UK)

Detailed information on ship capabilities available from University of Delaware's Ocean Information Center.

Last reported at 2017-Oct-08 07:40 UTC. Time now 2017-Oct-17 15:10 UTC.
Position N 41°02' W 070°37'.
Warning: this ship's position is 9 days out of date.

Length 70 m; draft 5.9 m.

Type: Cargo ship. MMSI: 235011460.

Date/timePositionNaut miles runAvg speedWind from/ knotsBaromVisibWave heightAir tempDewpointWater temp
2017-Oct-08 07:40N 41°02' W 070°37'10 1.2
2017-Oct-07 23:40N 41°09' W 070°28'1 3.5
2017-Oct-07 23:18N 41°08' W 070°30'8 0.6
2017-Oct-07 10:26N 41°07' W 070°40'1 2.7
2017-Oct-07 09:54N 41°08' W 070°41'1 1.6
2017-Oct-07 09:26N 41°09' W 070°41'1 3.1
2017-Oct-07 09:00N 41°08' W 070°40'1 2.9
2017-Oct-07 08:30N 41°07' W 070°38'11 0.2
2017-Oct-05 10:54N 40°57' W 070°45'1 2.4
2017-Oct-05 10:28N 40°58' W 070°44'1 2.3
2017-Oct-05 10:00N 40°59' W 070°44'10 0.4
2017-Oct-04 07:25N 41°08' W 070°38'2 2.7
2017-Oct-04 06:44N 41°07' W 070°40'0 0.2
2017-Oct-04 05:45N 41°07' W 070°39'2 1.1
2017-Oct-04 04:13N 41°08' W 070°38'1 3.1
2017-Oct-04 04:00N 41°07' W 070°38'2 3.2
2017-Oct-04 03:28N 41°06' W 070°40'  
Track history (hours):
 
Tides and Currents Weather Stations Pressure Air Temp Water Temp Dewpoint Dewpoint Depression Visibility Wind Speed Wind Dir Waves Ship Positions

Oceanographic research ship Charles Darwin (UK)

Detailed information on ship capabilities available from University of Delaware's Ocean Information Center.

Last reported at 2017-Oct-08 07:40 UTC. Time now 2017-Oct-17 15:10 UTC.
Position N 41°02' W 070°37'.
Warning: this ship's position is 9 days out of date.

Length 70 m; draft 5.9 m.

Type: Cargo ship. MMSI: 235011460.

Date/timePositionNaut miles runAvg speedWind from/ knotsBaromVisibWave heightAir tempDewpointWater temp
2017-Oct-08 07:40N 41°02' W 070°37'10 1.2
2017-Oct-07 23:40N 41°09' W 070°28'1 3.5
2017-Oct-07 23:18N 41°08' W 070°30'8 0.6
2017-Oct-07 10:26N 41°07' W 070°40'1 2.7
2017-Oct-07 09:54N 41°08' W 070°41'1 1.6
2017-Oct-07 09:26N 41°09' W 070°41'1 3.1
2017-Oct-07 09:00N 41°08' W 070°40'1 2.9
2017-Oct-07 08:30N 41°07' W 070°38'11 0.2
2017-Oct-05 10:54N 40°57' W 070°45'1 2.4
2017-Oct-05 10:28N 40°58' W 070°44'1 2.3
2017-Oct-05 10:00N 40°59' W 070°44'10 0.4
2017-Oct-04 07:25N 41°08' W 070°38'2 2.7
2017-Oct-04 06:44N 41°07' W 070°40'0 0.2
2017-Oct-04 05:45N 41°07' W 070°39'2 1.1
2017-Oct-04 04:13N 41°08' W 070°38'1 3.1
2017-Oct-04 04:00N 41°07' W 070°38'2 3.2
2017-Oct-04 03:28N 41°06' W 070°40'  

Dump ship's entire track history